sensor_id;sensor_type;location;lat;lon;timestamp;pressure;altitude;pressure_sealevel;temperature;humidity
6132;BME280;3097;42.692;23.278;2023-12-20T00:00:17;95399.50;;;1.35;93.63
6132;BME280;3097;42.692;23.278;2023-12-20T00:02:42;95393.44;;;1.28;93.58
6132;BME280;3097;42.692;23.278;2023-12-20T00:05:13;95391.84;;;1.27;93.52
6132;BME280;3097;42.692;23.278;2023-12-20T00:07:38;95386.13;;;1.25;93.45
6132;BME280;3097;42.692;23.278;2023-12-20T00:10:04;95383.72;;;1.23;93.54
6132;BME280;3097;42.692;23.278;2023-12-20T00:12:30;95379.44;;;1.24;93.70
6132;BME280;3097;42.692;23.278;2023-12-20T00:14:55;95382.91;;;1.23;93.49
6132;BME280;3097;42.692;23.278;2023-12-20T00:17:21;95377.84;;;1.23;93.44
6132;BME280;3097;42.692;23.278;2023-12-20T00:19:46;95375.44;;;1.21;93.25
6132;BME280;3097;42.692;23.278;2023-12-20T00:22:12;95364.31;;;1.14;93.30
6132;BME280;3097;42.692;23.278;2023-12-20T00:24:37;95364.00;;;1.17;93.39
6132;BME280;3097;42.692;23.278;2023-12-20T00:27:03;95356.69;;;1.14;93.08
6132;BME280;3097;42.692;23.278;2023-12-20T00:29:28;95364.16;;;1.15;93.29
6132;BME280;3097;42.692;23.278;2023-12-20T00:31:54;95351.78;;;1.12;92.82
6132;BME280;3097;42.692;23.278;2023-12-20T00:34:19;95351.94;;;1.11;92.82
6132;BME280;3097;42.692;23.278;2023-12-20T00:36:45;95350.34;;;1.10;93.11
6132;BME280;3097;42.692;23.278;2023-12-20T00:39:11;95347.81;;;1.10;93.13
6132;BME280;3097;42.692;23.278;2023-12-20T00:41:36;95344.47;;;1.09;92.99
6132;BME280;3097;42.692;23.278;2023-12-20T00:44:02;95345.56;;;1.07;92.80
6132;BME280;3097;42.692;23.278;2023-12-20T00:46:28;95338.25;;;1.04;92.99
6132;BME280;3097;42.692;23.278;2023-12-20T00:48:53;95340.78;;;1.04;92.63
6132;BME280;3097;42.692;23.278;2023-12-20T00:51:19;95340.00;;;1.03;92.47
6132;BME280;3097;42.692;23.278;2023-12-20T00:53:44;95336.00;;;1.01;92.71
6132;BME280;3097;42.692;23.278;2023-12-20T00:56:11;95327.75;;;0.99;92.55
6132;BME280;3097;42.692;23.278;2023-12-20T00:58:36;95338.69;;;0.99;92.66
6132;BME280;3097;42.692;23.278;2023-12-20T01:01:02;95327.91;;;0.97;92.90
6132;BME280;3097;42.692;23.278;2023-12-20T01:03:28;95330.44;;;0.97;93.09
6132;BME280;3097;42.692;23.278;2023-12-20T01:05:53;95323.78;;;0.96;93.78
6132;BME280;3097;42.692;23.278;2023-12-20T01:08:19;95318.53;;;0.98;93.58
6132;BME280;3097;42.692;23.278;2023-12-20T01:10:44;95297.41;;;0.89;92.97
6132;BME280;3097;42.692;23.278;2023-12-20T01:13:12;95307.63;;;0.97;93.65
6132;BME280;3097;42.692;23.278;2023-12-20T01:15:37;95277.50;;;0.76;93.29
6132;BME280;3097;42.692;23.278;2023-12-20T01:18:03;95309.34;;;0.97;93.28
6132;BME280;3097;42.692;23.278;2023-12-20T01:20:28;95289.44;;;0.84;93.28
6132;BME280;3097;42.692;23.278;2023-12-20T01:22:54;95288.66;;;0.84;93.21
6132;BME280;3097;42.692;23.278;2023-12-20T01:25:19;95307.63;;;0.97;93.12
6132;BME280;3097;42.692;23.278;2023-12-20T01:27:45;95296.81;;;0.95;92.83
6132;BME280;3097;42.692;23.278;2023-12-20T01:30:11;95292.69;;;0.94;92.44
6132;BME280;3097;42.692;23.278;2023-12-20T01:32:36;95264.69;;;0.78;92.50
6132;BME280;3097;42.692;23.278;2023-12-20T01:35:02;95291.22;;;0.92;93.00
6132;BME280;3097;42.692;23.278;2023-12-20T01:37:27;95286.31;;;0.90;92.61
6132;BME280;3097;42.692;23.278;2023-12-20T01:39:54;95277.41;;;0.86;92.76
6132;BME280;3097;42.692;23.278;2023-12-20T01:42:20;95271.38;;;0.87;92.63
6132;BME280;3097;42.692;23.278;2023-12-20T01:44:45;95270.75;;;0.85;92.55
6132;BME280;3097;42.692;23.278;2023-12-20T01:47:11;95266.78;;;0.83;92.25
6132;BME280;3097;42.692;23.278;2023-12-20T01:52:22;95263.75;;;0.79;92.59
6132;BME280;3097;42.692;23.278;2023-12-20T01:54:48;95256.94;;;0.80;92.77
6132;BME280;3097;42.692;23.278;2023-12-20T01:57:15;95253.59;;;0.79;92.78
6132;BME280;3097;42.692;23.278;2023-12-20T01:59:41;95258.66;;;0.79;92.56
6132;BME280;3097;42.692;23.278;2023-12-20T02:02:07;95241.53;;;0.73;92.23
6132;BME280;3097;42.692;23.278;2023-12-20T02:04:33;95256.41;;;0.76;92.46
6132;BME280;3097;42.692;23.278;2023-12-20T02:06:59;95250.53;;;0.75;92.57
6132;BME280;3097;42.692;23.278;2023-12-20T02:09:24;95250.53;;;0.75;92.67
6132;BME280;3097;42.692;23.278;2023-12-20T02:11:50;95248.19;;;0.74;92.04
6132;BME280;3097;42.692;23.278;2023-12-20T02:14:16;95242.47;;;0.72;92.37
6132;BME280;3097;42.692;23.278;2023-12-20T02:16:41;95243.13;;;0.74;93.46
6132;BME280;3097;42.692;23.278;2023-12-20T02:19:14;95235.31;;;0.75;93.42
6132;BME280;3097;42.692;23.278;2023-12-20T02:21:40;95236.78;;;0.78;93.26
6132;BME280;3097;42.692;23.278;2023-12-20T02:24:06;95238.38;;;0.79;93.24
6132;BME280;3097;42.692;23.278;2023-12-20T02:26:33;95221.41;;;0.80;93.47
6132;BME280;3097;42.692;23.278;2023-12-20T02:28:59;95223.00;;;0.81;92.95
6132;BME280;3097;42.692;23.278;2023-12-20T02:31:25;95218.88;;;0.80;92.77
6132;BME280;3097;42.692;23.278;2023-12-20T02:33:50;95218.72;;;0.81;93.18
6132;BME280;3097;42.692;23.278;2023-12-20T02:36:16;95183.56;;;0.60;92.95
6132;BME280;3097;42.692;23.278;2023-12-20T02:38:41;95206.66;;;0.83;92.65
6132;BME280;3097;42.692;23.278;2023-12-20T02:41:07;95210.31;;;0.81;92.36
6132;BME280;3097;42.692;23.278;2023-12-20T02:43:32;95170.72;;;0.54;91.98
6132;BME280;3097;42.692;23.278;2023-12-20T02:45:58;95196.78;;;0.72;92.27
6132;BME280;3097;42.692;23.278;2023-12-20T02:48:23;95205.34;;;0.71;92.88
6132;BME280;3097;42.692;23.278;2023-12-20T02:50:49;95207.59;;;0.74;92.26
6132;BME280;3097;42.692;23.278;2023-12-20T02:53:15;95207.09;;;0.70;92.72
6132;BME280;3097;42.692;23.278;2023-12-20T02:55:40;95200.28;;;0.71;92.82
6132;BME280;3097;42.692;23.278;2023-12-20T02:58:06;95211.38;;;0.70;92.44
6132;BME280;3097;42.692;23.278;2023-12-20T03:00:31;95201.53;;;0.67;92.80
6132;BME280;3097;42.692;23.278;2023-12-20T03:02:57;95196.44;;;0.59;93.47
6132;BME280;3097;42.692;23.278;2023-12-20T03:05:24;95201.53;;;0.67;92.83
6132;BME280;3097;42.692;23.278;2023-12-20T03:07:50;95207.84;;;0.63;92.63
6132;BME280;3097;42.692;23.278;2023-12-20T03:10:15;95191.03;;;0.62;92.46
6132;BME280;3097;42.692;23.278;2023-12-20T03:12:41;95202.44;;;0.58;92.37
6132;BME280;3097;42.692;23.278;2023-12-20T03:15:07;95199.88;;;0.50;93.52
6132;BME280;3097;42.692;23.278;2023-12-20T03:17:32;95191.66;;;0.56;93.95
6132;BME280;3097;42.692;23.278;2023-12-20T03:19:58;95192.31;;;0.58;94.35
6132;BME280;3097;42.692;23.278;2023-12-20T03:22:23;95188.03;;;0.58;93.49
6132;BME280;3097;42.692;23.278;2023-12-20T03:24:49;95202.59;;;0.56;93.44
6132;BME280;3097;42.692;23.278;2023-12-20T03:27:14;95188.31;;;0.55;93.11
6132;BME280;3097;42.692;23.278;2023-12-20T03:29:40;95182.78;;;0.52;92.95
6132;BME280;3097;42.692;23.278;2023-12-20T03:32:05;95175.78;;;0.54;92.76
6132;BME280;3097;42.692;23.278;2023-12-20T03:34:31;95182.44;;;0.55;92.84
6132;BME280;3097;42.692;23.278;2023-12-20T03:36:57;95175.78;;;0.54;93.09
6132;BME280;3097;42.692;23.278;2023-12-20T03:39:22;95184.19;;;0.54;93.17
6132;BME280;3097;42.692;23.278;2023-12-20T03:41:48;95180.06;;;0.53;93.50
6132;BME280;3097;42.692;23.278;2023-12-20T03:44:13;95173.44;;;0.52;93.71
6132;BME280;3097;42.692;23.278;2023-12-20T03:46:38;95178.50;;;0.52;93.52
6132;BME280;3097;42.692;23.278;2023-12-20T03:49:04;95171.03;;;0.51;93.37
6132;BME280;3097;42.692;23.278;2023-12-20T03:51:29;95178.78;;;0.49;93.46
6132;BME280;3097;42.692;23.278;2023-12-20T03:53:55;95177.06;;;0.50;92.87
6132;BME280;3097;42.692;23.278;2023-12-20T03:56:20;95175.59;;;0.47;92.76
6132;BME280;3097;42.692;23.278;2023-12-20T03:58:46;95173.22;;;0.46;92.44
6132;BME280;3097;42.692;23.278;2023-12-20T04:01:11;95127.44;;;0.13;92.26
6132;BME280;3097;42.692;23.278;2023-12-20T04:03:38;95174.75;;;0.38;91.91
6132;BME280;3097;42.692;23.278;2023-12-20T04:06:04;95163.34;;;0.34;92.29
6132;BME280;3097;42.692;23.278;2023-12-20T04:08:29;95156.53;;;0.35;92.89
6132;BME280;3097;42.692;23.278;2023-12-20T04:10:55;95161.47;;;0.36;92.28
6132;BME280;3097;42.692;23.278;2023-12-20T04:13:20;95146.06;;;0.30;92.77
6132;BME280;3097;42.692;23.278;2023-12-20T04:15:46;95150.69;;;0.34;92.40
6132;BME280;3097;42.692;23.278;2023-12-20T04:18:12;95151.47;;;0.35;92.69
6132;BME280;3097;42.692;23.278;2023-12-20T04:20:37;95112.25;;;0.13;92.27
6132;BME280;3097;42.692;23.278;2023-12-20T04:23:03;95144.81;;;0.34;92.26
6132;BME280;3097;42.692;23.278;2023-12-20T04:25:28;95145.91;;;0.31;92.01
6132;BME280;3097;42.692;23.278;2023-12-20T04:27:54;95144.31;;;0.30;91.91
6132;BME280;3097;42.692;23.278;2023-12-20T04:30:19;95137.66;;;0.29;92.33
6132;BME280;3097;42.692;23.278;2023-12-20T04:32:45;95149.97;;;0.24;92.42
6132;BME280;3097;42.692;23.278;2023-12-20T04:35:10;95139.38;;;0.21;93.12
6132;BME280;3097;42.692;23.278;2023-12-20T04:37:36;95138.72;;;0.19;93.40
6132;BME280;3097;42.692;23.278;2023-12-20T04:40:01;95122.06;;;0.16;93.68
6132;BME280;3097;42.692;23.278;2023-12-20T04:42:27;95133.19;;;0.23;93.98
6132;BME280;3097;42.692;23.278;2023-12-20T04:44:53;95131.28;;;0.25;94.00
6132;BME280;3097;42.692;23.278;2023-12-20T04:47:18;95124.97;;;0.21;93.76
6132;BME280;3097;42.692;23.278;2023-12-20T04:49:44;95133.69;;;0.27;93.90
6132;BME280;3097;42.692;23.278;2023-12-20T04:52:09;95127.53;;;0.29;93.97
6132;BME280;3097;42.692;23.278;2023-12-20T04:54:35;95121.50;;;0.30;94.12
6132;BME280;3097;42.692;23.278;2023-12-20T04:57:00;95135.75;;;0.31;94.12
6132;BME280;3097;42.692;23.278;2023-12-20T04:59:26;95129.09;;;0.30;93.87
6132;BME280;3097;42.692;23.278;2023-12-20T05:01:52;95118.28;;;0.20;93.89
6132;BME280;3097;42.692;23.278;2023-12-20T05:04:18;95081.75;;;-0.03;93.76
6132;BME280;3097;42.692;23.278;2023-12-20T05:06:44;95127.53;;;0.29;93.82
6132;BME280;3097;42.692;23.278;2023-12-20T05:09:10;95102.75;;;0.23;93.96
6132;BME280;3097;42.692;23.278;2023-12-20T05:11:35;95117.22;;;0.31;94.28
6132;BME280;3097;42.692;23.278;2023-12-20T05:14:01;95106.44;;;0.29;94.39
6132;BME280;3097;42.692;23.278;2023-12-20T05:16:29;95064.34;;;0.02;94.25
6132;BME280;3097;42.692;23.278;2023-12-20T05:18:55;95115.97;;;0.35;94.31
6132;BME280;3097;42.692;23.278;2023-12-20T05:21:21;95115.19;;;0.34;93.68
6132;BME280;3097;42.692;23.278;2023-12-20T05:23:46;95112.78;;;0.33;93.34
6132;BME280;3097;42.692;23.278;2023-12-20T05:26:12;95108.53;;;0.33;93.13
6132;BME280;3097;42.692;23.278;2023-12-20T05:28:37;95102.66;;;0.33;93.62
6132;BME280;3097;42.692;23.278;2023-12-20T05:31:03;95108.38;;;0.35;93.19
6132;BME280;3097;42.692;23.278;2023-12-20T05:33:28;95096.78;;;0.32;93.10
6132;BME280;3097;42.692;23.278;2023-12-20T05:35:54;95090.13;;;0.31;93.30
6132;BME280;3097;42.692;23.278;2023-12-20T05:38:20;95101.56;;;0.35;92.96
6132;BME280;3097;42.692;23.278;2023-12-20T05:40:45;95089.19;;;0.32;92.77
6132;BME280;3097;42.692;23.278;2023-12-20T05:43:11;95097.59;;;0.33;92.80
6132;BME280;3097;42.692;23.278;2023-12-20T05:45:36;95095.19;;;0.31;92.97
6132;BME280;3097;42.692;23.278;2023-12-20T05:48:02;95099.66;;;0.29;93.39
6132;BME280;3097;42.692;23.278;2023-12-20T05:50:28;95095.19;;;0.31;93.25
6132;BME280;3097;42.692;23.278;2023-12-20T05:52:54;95076.94;;;0.20;93.69
6132;BME280;3097;42.692;23.278;2023-12-20T05:55:20;95085.84;;;0.32;93.52
6132;BME280;3097;42.692;23.278;2023-12-20T05:57:45;95082.22;;;0.34;93.65
6132;BME280;3097;42.692;23.278;2023-12-20T06:00:12;95088.09;;;0.35;93.59
6132;BME280;3097;42.692;23.278;2023-12-20T06:02:38;95078.41;;;0.38;93.95
6132;BME280;3097;42.692;23.278;2023-12-20T06:05:05;95072.56;;;0.38;93.77
6132;BME280;3097;42.692;23.278;2023-12-20T06:07:30;95077.81;;;0.36;94.09
6132;BME280;3097;42.692;23.278;2023-12-20T06:09:56;95077.81;;;0.36;94.26
6132;BME280;3097;42.692;23.278;2023-12-20T06:12:21;95083.66;;;0.37;94.48
6132;BME280;3097;42.692;23.278;2023-12-20T06:14:47;95075.59;;;0.42;94.65
6132;BME280;3097;42.692;23.278;2023-12-20T06:17:12;95047.03;;;0.31;94.74
6132;BME280;3097;42.692;23.278;2023-12-20T06:19:38;95092.06;;;0.46;94.79
6132;BME280;3097;42.692;23.278;2023-12-20T06:22:03;95082.91;;;0.45;94.92
6132;BME280;3097;42.692;23.278;2023-12-20T06:24:29;95085.28;;;0.54;94.82
6132;BME280;3097;42.692;23.278;2023-12-20T06:26:55;95077.38;;;0.57;94.89
6132;BME280;3097;42.692;23.278;2023-12-20T06:29:20;95086.41;;;0.52;94.66
6132;BME280;3097;42.692;23.278;2023-12-20T06:31:46;95078.97;;;0.58;94.81
6132;BME280;3097;42.692;23.278;2023-12-20T06:34:11;95082.91;;;0.61;94.82
6132;BME280;3097;42.692;23.278;2023-12-20T06:36:37;95076.59;;;0.65;94.79
6132;BME280;3097;42.692;23.278;2023-12-20T06:39:03;95083.41;;;0.64;94.67
6132;BME280;3097;42.692;23.278;2023-12-20T06:41:30;95073.13;;;0.66;94.82
6132;BME280;3097;42.692;23.278;2023-12-20T06:43:55;95066.59;;;0.55;94.71
6132;BME280;3097;42.692;23.278;2023-12-20T06:46:21;95070.44;;;0.67;94.82
6132;BME280;3097;42.692;23.278;2023-12-20T06:48:46;95066.31;;;0.66;94.64
6132;BME280;3097;42.692;23.278;2023-12-20T06:51:16;95058.69;;;0.58;94.15
6132;BME280;3097;42.692;23.278;2023-12-20T06:53:45;95040.75;;;0.52;94.42
6132;BME280;3097;42.692;23.278;2023-12-20T06:56:11;95062.97;;;0.66;94.50
6132;BME280;3097;42.692;23.278;2023-12-20T06:58:41;94975.38;;;0.05;94.15
6132;BME280;3097;42.692;23.278;2023-12-20T07:01:11;95054.56;;;0.65;94.26
6132;BME280;3097;42.692;23.278;2023-12-20T07:03:37;95047.28;;;0.70;94.43
6132;BME280;3097;42.692;23.278;2023-12-20T07:06:03;95046.84;;;0.75;94.35
6132;BME280;3097;42.692;23.278;2023-12-20T07:08:29;95051.91;;;0.75;94.10
6132;BME280;3097;42.692;23.278;2023-12-20T07:10:54;95002.88;;;0.50;94.39
6132;BME280;3097;42.692;23.278;2023-12-20T07:13:20;95011.88;;;0.53;93.78
6132;BME280;3097;42.692;23.278;2023-12-20T07:15:45;95014.91;;;0.56;93.99
6132;BME280;3097;42.692;23.278;2023-12-20T07:18:11;95054.41;;;0.83;94.06
6132;BME280;3097;42.692;23.278;2023-12-20T07:20:36;95043.66;;;0.89;93.86
6132;BME280;3097;42.692;23.278;2023-12-20T07:23:02;95042.72;;;0.90;93.87
6132;BME280;3097;42.692;23.278;2023-12-20T07:25:28;95042.53;;;0.92;93.53
6132;BME280;3097;42.692;23.278;2023-12-20T07:27:53;95034.63;;;0.95;93.49
6132;BME280;3097;42.692;23.278;2023-12-20T07:30:19;95031.75;;;0.98;93.50
6132;BME280;3097;42.692;23.278;2023-12-20T07:32:44;95033.03;;;1.02;93.25
6132;BME280;3097;42.692;23.278;2023-12-20T07:35:10;94985.94;;;0.75;93.03
6132;BME280;3097;42.692;23.278;2023-12-20T07:37:35;95029.06;;;0.99;93.30
6132;BME280;3097;42.692;23.278;2023-12-20T07:40:01;95035.88;;;1.07;93.27
6132;BME280;3097;42.692;23.278;2023-12-20T07:42:26;95025.56;;;1.08;93.68
6132;BME280;3097;42.692;23.278;2023-12-20T07:44:52;95029.84;;;1.16;93.84
6132;BME280;3097;42.692;23.278;2023-12-20T07:47:18;95032.69;;;1.21;93.73
6132;BME280;3097;42.692;23.278;2023-12-20T07:49:49;95029.06;;;1.15;93.62
6132;BME280;3097;42.692;23.278;2023-12-20T07:52:17;95033.03;;;1.18;94.01
6132;BME280;3097;42.692;23.278;2023-12-20T07:54:43;95024.94;;;1.23;94.01
6132;BME280;3097;42.692;23.278;2023-12-20T07:57:08;95021.44;;;1.24;94.03
6132;BME280;3097;42.692;23.278;2023-12-20T07:59:34;95028.09;;;1.33;93.44
6132;BME280;3097;42.692;23.278;2023-12-20T08:01:59;95002.25;;;1.21;93.01
6132;BME280;3097;42.692;23.278;2023-12-20T08:04:24;95025.22;;;1.44;92.90
6132;BME280;3097;42.692;23.278;2023-12-20T08:06:50;95027.28;;;1.48;92.46
6132;BME280;3097;42.692;23.278;2023-12-20T08:09:16;95011.91;;;1.50;92.39
6132;BME280;3097;42.692;23.278;2023-12-20T08:11:48;94977.84;;;1.20;91.71
6132;BME280;3097;42.692;23.278;2023-12-20T08:14:16;95015.97;;;1.59;91.92
6132;BME280;3097;42.692;23.278;2023-12-20T08:16:42;95005.34;;;1.64;91.55
6132;BME280;3097;42.692;23.278;2023-12-20T08:19:08;95009.28;;;1.74;91.90
6132;BME280;3097;42.692;23.278;2023-12-20T08:21:34;94999.03;;;1.99;91.84
6132;BME280;3097;42.692;23.278;2023-12-20T08:23:59;94959.19;;;1.91;90.96
6132;BME280;3097;42.692;23.278;2023-12-20T08:26:26;94999.91;;;2.45;90.90
6132;BME280;3097;42.692;23.278;2023-12-20T08:28:51;94949.09;;;2.37;90.11
6132;BME280;3097;42.692;23.278;2023-12-20T08:31:18;94992.47;;;2.89;89.94
6132;BME280;3097;42.692;23.278;2023-12-20T08:33:48;94999.00;;;3.06;88.90
6132;BME280;3097;42.692;23.278;2023-12-20T08:36:14;94954.75;;;2.92;88.07
6132;BME280;3097;42.692;23.278;2023-12-20T08:38:40;94964.00;;;3.08;87.17
6132;BME280;3097;42.692;23.278;2023-12-20T08:41:06;94975.72;;;3.09;86.23
6132;BME280;3097;42.692;23.278;2023-12-20T08:43:34;94977.16;;;3.11;87.21
6132;BME280;3097;42.692;23.278;2023-12-20T08:46:01;94957.03;;;3.02;87.18
6132;BME280;3097;42.692;23.278;2023-12-20T08:48:28;94968.66;;;3.19;86.88
6132;BME280;3097;42.692;23.278;2023-12-20T08:50:55;94960.38;;;3.17;86.50
6132;BME280;3097;42.692;23.278;2023-12-20T08:53:20;94964.97;;;3.22;87.05
6132;BME280;3097;42.692;23.278;2023-12-20T08:55:46;94938.97;;;3.11;87.23
6132;BME280;3097;42.692;23.278;2023-12-20T08:58:12;94955.22;;;3.25;87.54
6132;BME280;3097;42.692;23.278;2023-12-20T09:00:37;94836.25;;;2.52;87.15
6132;BME280;3097;42.692;23.278;2023-12-20T09:03:04;94946.06;;;3.31;86.99
6132;BME280;3097;42.692;23.278;2023-12-20T09:05:31;94942.78;;;3.30;87.13
6132;BME280;3097;42.692;23.278;2023-12-20T09:07:57;94928.97;;;3.39;87.31
6132;BME280;3097;42.692;23.278;2023-12-20T09:10:23;94923.94;;;3.31;87.85
6132;BME280;3097;42.692;23.278;2023-12-20T09:12:53;94920.09;;;3.35;87.31
6132;BME280;3097;42.692;23.278;2023-12-20T09:15:26;94911.50;;;3.36;87.33
6132;BME280;3097;42.692;23.278;2023-12-20T09:17:52;94897.78;;;3.37;86.94
6132;BME280;3097;42.692;23.278;2023-12-20T09:20:18;94815.50;;;2.78;87.64
6132;BME280;3097;42.692;23.278;2023-12-20T09:22:43;94883.63;;;3.35;88.06
6132;BME280;3097;42.692;23.278;2023-12-20T09:25:12;94876.41;;;3.38;88.24
6132;BME280;3097;42.692;23.278;2023-12-20T09:27:39;94877.03;;;3.40;87.95
6132;BME280;3097;42.692;23.278;2023-12-20T09:30:06;94868.88;;;3.45;88.04
6132;BME280;3097;42.692;23.278;2023-12-20T09:32:32;94868.34;;;3.49;88.03
6132;BME280;3097;42.692;23.278;2023-12-20T09:34:57;94865.19;;;3.47;88.21
6132;BME280;3097;42.692;23.278;2023-12-20T09:37:26;94857.00;;;3.52;88.21
6132;BME280;3097;42.692;23.278;2023-12-20T09:39:52;94850.47;;;3.64;88.37
6132;BME280;3097;42.692;23.278;2023-12-20T09:42:24;94842.41;;;3.61;88.88
6132;BME280;3097;42.692;23.278;2023-12-20T09:44:50;94842.91;;;3.71;89.36
6132;BME280;3097;42.692;23.278;2023-12-20T09:47:19;94841.03;;;3.79;88.85
6132;BME280;3097;42.692;23.278;2023-12-20T09:49:46;94840.19;;;3.94;88.34
6132;BME280;3097;42.692;23.278;2023-12-20T09:52:12;94801.84;;;3.80;88.37
6132;BME280;3097;42.692;23.278;2023-12-20T09:54:39;94822.84;;;4.04;87.78
6132;BME280;3097;42.692;23.278;2023-12-20T09:57:06;94816.59;;;4.06;88.10
6132;BME280;3097;42.692;23.278;2023-12-20T09:59:31;94817.13;;;4.23;88.30
6132;BME280;3097;42.692;23.278;2023-12-20T10:01:57;94821.13;;;4.32;87.34
6132;BME280;3097;42.692;23.278;2023-12-20T10:04:23;94819.59;;;4.38;86.78
6132;BME280;3097;42.692;23.278;2023-12-20T10:06:48;94818.69;;;4.45;86.30
6132;BME280;3097;42.692;23.278;2023-12-20T10:09:14;94821.25;;;4.45;86.23
6132;BME280;3097;42.692;23.278;2023-12-20T10:11:40;94804.97;;;4.46;86.48
6132;BME280;3097;42.692;23.278;2023-12-20T10:14:06;94805.69;;;4.68;86.61
6132;BME280;3097;42.692;23.278;2023-12-20T10:16:33;94803.00;;;4.76;86.84
6132;BME280;3097;42.692;23.278;2023-12-20T10:18:59;94789.72;;;4.87;86.12
6132;BME280;3097;42.692;23.278;2023-12-20T10:21:26;94776.69;;;4.76;85.25
6132;BME280;3097;42.692;23.278;2023-12-20T10:23:53;94764.81;;;4.61;85.59
6132;BME280;3097;42.692;23.278;2023-12-20T10:26:20;94770.03;;;4.81;86.33
6132;BME280;3097;42.692;23.278;2023-12-20T10:28:50;94766.09;;;4.79;86.54
6132;BME280;3097;42.692;23.278;2023-12-20T10:31:35;94770.03;;;4.81;86.23
6132;BME280;3097;42.692;23.278;2023-12-20T10:34:01;94759.59;;;4.76;86.01
6132;BME280;3097;42.692;23.278;2023-12-20T10:36:29;94746.84;;;4.76;85.49
6132;BME280;3097;42.692;23.278;2023-12-20T10:38:56;94760.56;;;4.75;85.67
6132;BME280;3097;42.692;23.278;2023-12-20T10:41:32;94755.84;;;4.72;85.89
6132;BME280;3097;42.692;23.278;2023-12-20T10:44:00;94747.94;;;4.67;86.16
6132;BME280;3097;42.692;23.278;2023-12-20T10:46:29;94738.09;;;4.57;86.08
6132;BME280;3097;42.692;23.278;2023-12-20T10:48:56;94727.88;;;4.57;86.24
6132;BME280;3097;42.692;23.278;2023-12-20T10:51:22;94730.22;;;4.59;86.08
6132;BME280;3097;42.692;23.278;2023-12-20T10:53:50;94733.19;;;4.56;85.92
6132;BME280;3097;42.692;23.278;2023-12-20T10:56:17;94730.13;;;4.39;86.49
6132;BME280;3097;42.692;23.278;2023-12-20T10:58:44;94727.75;;;4.38;86.71
6132;BME280;3097;42.692;23.278;2023-12-20T11:01:12;94721.47;;;4.34;87.18
6132;BME280;3097;42.692;23.278;2023-12-20T11:03:50;94714.78;;;4.33;86.88
6132;BME280;3097;42.692;23.278;2023-12-20T11:14:50;94668.44;;;4.01;87.90
6132;BME280;3097;42.692;23.278;2023-12-20T11:17:16;94683.25;;;4.12;88.05
6132;BME280;3097;42.692;23.278;2023-12-20T11:22:20;94674.25;;;4.16;88.79
6132;BME280;3097;42.692;23.278;2023-12-20T11:24:46;94654.16;;;4.07;88.93
6132;BME280;3097;42.692;23.278;2023-12-20T11:27:15;94669.75;;;4.18;89.62
6132;BME280;3097;42.692;23.278;2023-12-20T11:29:41;94665.28;;;4.27;89.61
6132;BME280;3097;42.692;23.278;2023-12-20T11:37:37;94635.53;;;4.41;89.04
6132;BME280;3097;42.692;23.278;2023-12-20T11:40:05;94635.13;;;4.44;89.06
6132;BME280;3097;42.692;23.278;2023-12-20T11:42:38;94618.69;;;4.53;88.72
6132;BME280;3097;42.692;23.278;2023-12-20T11:45:05;94615.59;;;4.64;87.91
6132;BME280;3097;42.692;23.278;2023-12-20T11:47:31;94622.31;;;4.72;87.32
6132;BME280;3097;42.692;23.278;2023-12-20T11:49:57;94547.97;;;4.34;86.68
6132;BME280;3097;42.692;23.278;2023-12-20T11:52:23;94601.72;;;4.80;86.34
6132;BME280;3097;42.692;23.278;2023-12-20T11:54:49;94605.84;;;4.81;85.81
6132;BME280;3097;42.692;23.278;2023-12-20T11:57:15;94592.66;;;4.77;86.20
6132;BME280;3097;42.692;23.278;2023-12-20T11:59:42;94596.41;;;4.81;86.65
6132;BME280;3097;42.692;23.278;2023-12-20T12:02:08;94585.63;;;4.92;85.97
6132;BME280;3097;42.692;23.278;2023-12-20T12:04:34;94584.25;;;4.96;85.99
6132;BME280;3097;42.692;23.278;2023-12-20T12:07:00;94583.88;;;5.06;84.98
6132;BME280;3097;42.692;23.278;2023-12-20T12:09:25;94537.09;;;4.86;85.33
6132;BME280;3097;42.692;23.278;2023-12-20T12:11:51;94564.25;;;5.06;86.10
6132;BME280;3097;42.692;23.278;2023-12-20T12:14:16;94556.78;;;5.05;85.18
6132;BME280;3097;42.692;23.278;2023-12-20T12:16:42;94551.84;;;4.97;85.42
6132;BME280;3097;42.692;23.278;2023-12-20T12:19:20;94545.38;;;5.07;85.23
6132;BME280;3097;42.692;23.278;2023-12-20T12:21:46;94539.13;;;5.10;85.46
6132;BME280;3097;42.692;23.278;2023-12-20T12:24:12;94541.44;;;5.05;85.50
6132;BME280;3097;42.692;23.278;2023-12-20T12:26:38;94524.34;;;4.99;86.25
6132;BME280;3097;42.692;23.278;2023-12-20T12:29:03;94520.81;;;5.13;85.68
6132;BME280;3097;42.692;23.278;2023-12-20T12:31:30;94544.63;;;5.33;85.20
6132;BME280;3097;42.692;23.278;2023-12-20T12:33:56;94539.72;;;5.32;85.72
6132;BME280;3097;42.692;23.278;2023-12-20T12:36:23;94546.59;;;5.38;85.49
6132;BME280;3097;42.692;23.278;2023-12-20T12:38:49;94546.56;;;5.44;85.10
6132;BME280;3097;42.692;23.278;2023-12-20T12:41:15;94542.06;;;5.40;85.12
6132;BME280;3097;42.692;23.278;2023-12-20T12:43:41;94536.34;;;5.44;85.04
6132;BME280;3097;42.692;23.278;2023-12-20T12:46:07;94541.06;;;5.54;84.94
6132;BME280;3097;42.692;23.278;2023-12-20T12:48:32;94539.13;;;5.56;85.00
6132;BME280;3097;42.692;23.278;2023-12-20T12:50:59;94535.53;;;5.57;84.71
6132;BME280;3097;42.692;23.278;2023-12-20T12:53:25;94528.28;;;5.61;83.87
6132;BME280;3097;42.692;23.278;2023-12-20T12:55:54;94530.06;;;5.47;84.74
6132;BME280;3097;42.692;23.278;2023-12-20T12:58:20;94525.75;;;5.48;84.88
6132;BME280;3097;42.692;23.278;2023-12-20T13:00:45;94523.19;;;5.41;85.55
6132;BME280;3097;42.692;23.278;2023-12-20T13:03:11;94520.63;;;5.48;85.33
6132;BME280;3097;42.692;23.278;2023-12-20T13:05:36;94524.34;;;5.45;85.81
6132;BME280;3097;42.692;23.278;2023-12-20T13:08:03;94502.16;;;5.32;85.75
6132;BME280;3097;42.692;23.278;2023-12-20T13:10:29;94519.06;;;5.40;84.83
6132;BME280;3097;42.692;23.278;2023-12-20T13:12:55;94524.19;;;5.40;85.43
6132;BME280;3097;42.692;23.278;2023-12-20T13:15:21;94517.50;;;5.39;85.56
6132;BME280;3097;42.692;23.278;2023-12-20T13:17:46;94516.88;;;5.43;85.70
6132;BME280;3097;42.692;23.278;2023-12-20T13:20:12;94516.69;;;5.38;85.61
6132;BME280;3097;42.692;23.278;2023-12-20T13:22:37;94514.16;;;5.32;85.65
6132;BME280;3097;42.692;23.278;2023-12-20T13:25:03;94501.19;;;5.33;85.72
6132;BME280;3097;42.692;23.278;2023-12-20T13:27:29;94508.84;;;5.40;85.50
6132;BME280;3097;42.692;23.278;2023-12-20T13:29:54;94513.97;;;5.33;85.89
6132;BME280;3097;42.692;23.278;2023-12-20T13:32:20;94500.38;;;5.26;86.02
6132;BME280;3097;42.692;23.278;2023-12-20T13:34:46;94506.09;;;5.28;86.28